createdAt,value
2023-05-17T00:01:08.047Z,76.70
2023-05-17T00:04:11.206Z,76.72
2023-05-17T00:07:14.388Z,76.76
2023-05-17T00:10:17.499Z,76.76
2023-05-17T00:13:20.731Z,76.73
2023-05-17T00:16:23.805Z,76.73
2023-05-17T00:19:26.980Z,76.78
2023-05-17T00:22:30.116Z,76.84
2023-05-17T00:25:33.139Z,76.93
2023-05-17T00:28:36.217Z,76.93
2023-05-17T00:31:39.213Z,76.96
2023-05-17T00:34:42.346Z,77.04
2023-05-17T00:37:48.103Z,77.09
2023-05-17T00:40:51.351Z,77.15
2023-05-17T00:43:54.618Z,77.23
2023-05-17T00:46:59.860Z,77.26
2023-05-17T00:50:03.711Z,77.34
2023-05-17T00:53:07.069Z,77.33
2023-05-17T00:56:10.168Z,77.37
2023-05-17T00:59:14.221Z,77.49
2023-05-17T01:02:18.016Z,77.52
2023-05-17T01:05:21.188Z,77.51
2023-05-17T01:08:24.374Z,77.57
2023-05-17T01:11:39.492Z,77.60
2023-05-17T01:14:52.226Z,77.63
2023-05-17T01:18:12.954Z,77.65
2023-05-17T01:21:45.183Z,77.70
2023-05-17T01:24:54.561Z,77.70
2023-05-17T01:28:00.358Z,77.72
2023-05-17T01:31:03.999Z,77.72
2023-05-17T01:34:10.584Z,77.73
2023-05-17T01:37:13.654Z,77.67
2023-05-17T01:40:18.361Z,77.66
2023-05-17T01:43:35.806Z,77.65
2023-05-17T01:46:43.051Z,77.66
2023-05-17T01:49:51.929Z,77.72
2023-05-17T01:52:59.725Z,77.76
2023-05-17T01:56:12.105Z,77.82
2023-05-17T01:59:24.211Z,77.90
2023-05-17T02:02:27.400Z,77.86
2023-05-17T02:05:30.641Z,77.85
2023-05-17T02:08:33.890Z,77.83
2023-05-17T02:11:37.243Z,77.76
2023-05-17T02:14:40.445Z,77.70
2023-05-17T02:17:43.612Z,77.75
2023-05-17T02:20:46.698Z,77.69
2023-05-17T02:23:51.174Z,77.70
2023-05-17T02:26:55.942Z,77.74
2023-05-17T02:30:02.130Z,77.77
2023-05-17T02:33:05.465Z,77.85
2023-05-17T02:36:08.977Z,77.83
2023-05-17T02:39:12.043Z,77.80
2023-05-17T02:42:15.153Z,77.72
2023-05-17T02:45:18.421Z,77.72
2023-05-17T02:48:22.082Z,77.66
2023-05-17T02:51:25.383Z,77.64
2023-05-17T02:54:28.425Z,77.67
2023-05-17T02:57:32.884Z,77.67
2023-05-17T03:00:36.012Z,77.60
2023-05-17T03:03:39.137Z,77.69
2023-05-17T03:06:42.534Z,77.71
2023-05-17T03:09:45.939Z,77.68
2023-05-17T03:12:49.191Z,77.62
2023-05-17T03:15:54.771Z,77.62
2023-05-17T03:18:58.344Z,77.53
2023-05-17T03:22:01.738Z,77.48
2023-05-17T03:25:06.849Z,77.47
2023-05-17T03:28:10.154Z,77.44
2023-05-17T03:31:13.378Z,77.42
2023-05-17T03:34:16.604Z,77.43
2023-05-17T03:37:19.684Z,77.42
2023-05-17T03:40:23.257Z,77.42
2023-05-17T03:43:26.464Z,77.29
2023-05-17T03:46:29.666Z,77.29
2023-05-17T03:49:33.106Z,77.27
2023-05-17T03:52:36.882Z,77.29
2023-05-17T03:55:40.084Z,77.30
2023-05-17T03:58:43.512Z,77.29
2023-05-17T04:01:47.148Z,77.37
2023-05-17T04:04:51.278Z,77.33
2023-05-17T04:07:54.694Z,77.23
2023-05-17T04:10:57.799Z,77.22
2023-05-17T04:14:00.970Z,77.23
2023-05-17T04:17:04.283Z,77.18
2023-05-17T04:20:07.811Z,77.18
2023-05-17T04:23:11.350Z,77.15
2023-05-17T04:26:15.084Z,77.18
2023-05-17T04:29:19.182Z,77.21
2023-05-17T04:32:23.010Z,77.18
2023-05-17T04:35:26.426Z,77.16
2023-05-17T04:38:30.540Z,77.15
2023-05-17T04:41:33.742Z,77.21
2023-05-17T04:44:38.444Z,77.28
2023-05-17T04:47:41.800Z,77.24
2023-05-17T04:50:46.380Z,77.26
2023-05-17T04:53:49.561Z,77.20
2023-05-17T04:56:53.765Z,77.18
2023-05-17T05:00:15.680Z,77.12
2023-05-17T05:03:23.016Z,77.15
2023-05-17T05:06:26.366Z,77.22
2023-05-17T05:09:29.766Z,77.34
2023-05-17T05:12:33.116Z,77.32
2023-05-17T05:15:36.210Z,77.21
2023-05-17T05:18:40.315Z,77.24
2023-05-17T05:21:46.432Z,77.13
2023-05-17T05:24:49.931Z,77.13
2023-05-17T05:27:53.376Z,77.21
2023-05-17T05:31:02.693Z,77.24
2023-05-17T05:34:11.580Z,77.16
2023-05-17T05:37:16.199Z,77.15
2023-05-17T05:40:21.491Z,78.56
2023-05-17T05:43:24.733Z,77.94
2023-05-17T05:46:27.948Z,77.59
2023-05-17T05:49:31.127Z,77.46
2023-05-17T05:52:34.292Z,77.38
2023-05-17T05:55:41.220Z,77.27
2023-05-17T05:58:45.192Z,77.18
2023-05-17T06:01:48.482Z,77.15
2023-05-17T06:04:51.487Z,77.08
2023-05-17T06:07:54.536Z,76.98
2023-05-17T06:10:57.782Z,76.87
2023-05-17T06:14:01.191Z,76.79
2023-05-17T06:17:04.963Z,76.70
2023-05-17T06:20:09.613Z,76.57
2023-05-17T06:23:13.689Z,76.46
2023-05-17T06:26:17.015Z,76.32
2023-05-17T06:29:20.237Z,76.30
2023-05-17T06:32:23.330Z,76.18
2023-05-17T06:35:26.718Z,76.10
2023-05-17T06:38:29.837Z,75.94
2023-05-17T06:41:32.969Z,75.84
2023-05-17T06:44:36.090Z,75.76
2023-05-17T06:47:39.835Z,75.74
2023-05-17T06:50:43.112Z,75.60
2023-05-17T06:53:46.180Z,75.60
2023-05-17T06:56:49.184Z,75.50
2023-05-17T06:59:52.436Z,75.48
2023-05-17T07:02:55.788Z,75.45
2023-05-17T07:05:59.001Z,75.50
2023-05-17T07:09:02.231Z,75.52
2023-05-17T07:12:06.189Z,75.53
2023-05-17T07:15:09.760Z,75.54
2023-05-17T07:18:12.948Z,75.57
2023-05-17T07:21:17.474Z,75.60
2023-05-17T07:24:21.735Z,75.66
2023-05-17T07:27:27.331Z,75.74
2023-05-17T07:30:30.503Z,75.73
2023-05-17T07:33:33.618Z,75.79
2023-05-17T07:36:36.981Z,75.87
2023-05-17T07:39:42.239Z,75.92
2023-05-17T07:43:25.060Z,76.03
2023-05-17T07:46:26.981Z,76.07
2023-05-17T07:49:30.216Z,75.93
2023-05-17T07:52:32.306Z,76.02
2023-05-17T07:55:35.866Z,76.02
2023-05-17T07:58:37.702Z,76.04
2023-05-17T08:01:39.520Z,76.07
2023-05-17T08:04:44.662Z,76.17
2023-05-17T08:07:46.497Z,76.19
2023-05-17T08:10:49.168Z,76.16
2023-05-17T08:13:50.949Z,76.19
2023-05-17T08:16:52.849Z,76.12
2023-05-17T08:19:54.727Z,76.06
2023-05-17T08:22:56.705Z,75.99
2023-05-17T08:25:58.735Z,75.99
2023-05-17T08:29:04.191Z,75.86
2023-05-17T08:32:07.642Z,75.78
2023-05-17T08:35:13.008Z,75.80
2023-05-17T08:38:14.903Z,75.79
2023-05-17T08:41:16.722Z,75.74
2023-05-17T08:44:20.148Z,75.68
2023-05-17T08:47:29.128Z,75.73
2023-05-17T08:50:34.265Z,75.75
2023-05-17T08:53:36.190Z,75.79
2023-05-17T08:56:42.051Z,75.84
2023-05-17T08:59:49.995Z,75.86
2023-05-17T09:02:51.899Z,75.89
2023-05-17T09:05:57.446Z,75.93
2023-05-17T09:09:04.497Z,76.04
2023-05-17T09:12:09.519Z,76.07
2023-05-17T09:15:20.309Z,76.11
2023-05-17T09:18:34.965Z,76.20
2023-05-17T09:21:37.145Z,76.26
2023-05-17T09:24:40.848Z,76.31
2023-05-17T09:27:42.868Z,76.36
2023-05-17T09:30:47.720Z,76.38
2023-05-17T09:33:50.153Z,76.29
2023-05-17T09:36:54.021Z,76.12
2023-05-17T09:39:56.058Z,75.95
2023-05-17T09:42:58.993Z,75.87
2023-05-17T09:46:00.869Z,75.89
2023-05-17T09:49:03.454Z,75.82
2023-05-17T09:52:07.687Z,75.85
2023-05-17T09:55:11.277Z,75.79
2023-05-17T09:58:13.580Z,75.74
2023-05-17T10:01:16.001Z,75.51
2023-05-17T10:04:22.693Z,75.55
2023-05-17T10:07:26.105Z,75.46
2023-05-17T10:10:30.575Z,75.42
2023-05-17T10:14:05.947Z,75.43
2023-05-17T10:17:09.281Z,75.54
2023-05-17T10:20:13.114Z,75.59
2023-05-17T10:23:16.363Z,75.71
2023-05-17T10:26:20.219Z,75.80
2023-05-17T10:29:22.936Z,75.85
2023-05-17T10:32:26.943Z,75.90
2023-05-17T10:35:30.467Z,75.90
2023-05-17T10:38:41.914Z,75.91
2023-05-17T10:41:47.273Z,75.92
2023-05-17T10:44:49.539Z,75.97
2023-05-17T10:47:52.897Z,75.99
2023-05-17T10:54:17.743Z,76.08
2023-05-17T10:57:49.211Z,76.12
2023-05-17T11:00:55.276Z,76.19
2023-05-17T11:03:57.897Z,76.17
2023-05-17T11:07:28.507Z,76.00
2023-05-17T11:10:31.102Z,76.08
2023-05-17T11:13:33.035Z,76.03
2023-05-17T11:16:36.887Z,76.03
2023-05-17T11:19:38.879Z,75.96
2023-05-17T11:23:04.806Z,75.98
2023-05-17T11:26:31.377Z,75.96
2023-05-17T11:29:33.894Z,75.92
2023-05-17T11:32:35.928Z,75.77
2023-05-17T11:35:39.061Z,75.58
2023-05-17T11:38:41.034Z,75.54
2023-05-17T11:41:50.936Z,75.50
2023-05-17T11:44:56.534Z,75.44
2023-05-17T11:47:58.651Z,75.44
2023-05-17T11:51:02.487Z,75.38
2023-05-17T11:54:06.643Z,75.35
2023-05-17T11:57:10.646Z,75.24
2023-05-17T12:00:13.452Z,75.26
2023-05-17T12:03:16.496Z,75.28
2023-05-17T12:06:18.507Z,75.28
2023-05-17T12:09:22.557Z,75.24
2023-05-17T12:12:25.432Z,75.06
2023-05-17T12:15:30.013Z,74.97
2023-05-17T12:18:37.116Z,74.72
2023-05-17T12:21:39.062Z,74.62
2023-05-17T12:24:42.545Z,74.59
2023-05-17T12:27:44.401Z,74.66
2023-05-17T12:30:51.213Z,74.73
2023-05-17T12:33:53.963Z,74.88
2023-05-17T12:36:56.198Z,74.93
2023-05-17T12:40:01.193Z,75.07
2023-05-17T12:43:03.629Z,75.11
2023-05-17T12:46:12.421Z,75.14
2023-05-17T12:49:14.452Z,75.18
2023-05-17T12:52:17.988Z,75.20
2023-05-17T12:55:19.735Z,75.16
2023-05-17T12:58:21.573Z,75.25
2023-05-17T13:01:23.441Z,75.38
2023-05-17T13:04:33.640Z,75.36
2023-05-17T13:07:35.835Z,75.36
2023-05-17T13:10:37.604Z,75.41
2023-05-17T13:13:40.147Z,75.48
2023-05-17T13:16:42.160Z,75.54
2023-05-17T13:19:44.122Z,75.50
2023-05-17T13:22:46.610Z,75.48
2023-05-17T13:25:48.536Z,75.54
2023-05-17T13:28:50.674Z,75.61
2023-05-17T13:31:52.526Z,75.70
2023-05-17T13:34:54.645Z,75.73
2023-05-17T13:37:57.297Z,75.79
2023-05-17T13:40:59.101Z,75.84
2023-05-17T13:44:01.090Z,75.82
2023-05-17T13:47:03.198Z,75.93
2023-05-17T13:50:05.672Z,75.99
2023-05-17T13:53:08.113Z,76.13
2023-05-17T13:56:10.337Z,76.22
2023-05-17T13:59:12.243Z,76.22
2023-05-17T14:02:14.662Z,76.13
2023-05-17T14:05:17.495Z,76.18
2023-05-17T14:08:19.720Z,76.17
2023-05-17T14:11:21.531Z,76.18
2023-05-17T14:14:25.493Z,76.22
2023-05-17T14:17:28.132Z,76.32
2023-05-17T14:20:30.681Z,76.37
2023-05-17T14:23:34.092Z,76.38
2023-05-17T14:26:36.569Z,76.42
2023-05-17T14:29:38.358Z,76.48
2023-05-17T14:32:40.881Z,76.52
2023-05-17T14:35:42.682Z,76.53
2023-05-17T14:38:44.355Z,76.59
2023-05-17T14:41:46.139Z,76.62
2023-05-17T14:44:47.853Z,76.55
2023-05-17T14:47:49.648Z,76.62
2023-05-17T14:50:52.670Z,76.63
2023-05-17T14:53:54.429Z,76.68
2023-05-17T14:56:56.710Z,76.75
2023-05-17T14:59:59.721Z,76.74
2023-05-17T15:03:01.818Z,76.82
2023-05-17T15:06:07.486Z,76.93
2023-05-17T15:09:13.544Z,76.90
2023-05-17T15:12:15.432Z,76.88
2023-05-17T15:15:17.373Z,76.90
2023-05-17T15:18:19.896Z,76.93
2023-05-17T15:21:21.777Z,76.98
2023-05-17T15:24:23.652Z,77.04
2023-05-17T15:27:25.540Z,77.14
2023-05-17T15:30:27.581Z,77.11
2023-05-17T15:33:30.389Z,77.11
2023-05-17T15:36:32.207Z,77.11
2023-05-17T15:39:37.546Z,77.14
2023-05-17T15:42:39.839Z,77.22
2023-05-17T15:45:41.687Z,77.29
2023-05-17T15:48:43.868Z,77.25
2023-05-17T15:51:46.213Z,77.24
2023-05-17T15:54:49.644Z,77.32
2023-05-17T15:57:51.488Z,77.38
2023-05-17T16:00:54.472Z,77.45
2023-05-17T16:03:56.340Z,77.58
2023-05-17T16:06:58.180Z,77.70
2023-05-17T16:09:59.905Z,77.82
2023-05-17T16:13:02.910Z,77.84
2023-05-17T16:16:05.198Z,77.86
2023-05-17T16:19:07.027Z,77.93
2023-05-17T16:22:09.021Z,77.94
2023-05-17T16:25:12.277Z,78.01
2023-05-17T16:28:14.008Z,77.98
2023-05-17T16:31:15.951Z,78.01
2023-05-17T16:34:17.912Z,78.10
2023-05-17T16:37:19.613Z,78.04
2023-05-17T16:40:21.430Z,77.99
2023-05-17T16:43:23.194Z,77.99
2023-05-17T16:46:25.771Z,77.99
2023-05-17T16:49:29.559Z,78.01
2023-05-17T16:52:31.482Z,78.06
2023-05-17T16:55:35.484Z,78.10
2023-05-17T16:58:37.345Z,78.12
2023-05-17T17:01:39.539Z,78.14
2023-05-17T17:04:41.158Z,78.12
2023-05-17T17:07:45.232Z,78.09
2023-05-17T17:10:46.986Z,78.00
2023-05-17T17:13:49.633Z,78.02
2023-05-17T17:16:51.378Z,77.95
2023-05-17T17:19:53.071Z,77.95
2023-05-17T17:22:55.376Z,78.00
2023-05-17T17:25:57.039Z,77.98
2023-05-17T17:28:59.351Z,77.96
2023-05-17T17:32:01.884Z,77.88
2023-05-17T17:35:04.028Z,77.89
2023-05-17T17:38:06.054Z,77.94
2023-05-17T17:41:09.241Z,77.91
2023-05-17T17:44:11.210Z,77.89
2023-05-17T17:47:13.206Z,77.93
2023-05-17T17:50:15.043Z,77.97
2023-05-17T17:53:16.816Z,77.98
2023-05-17T17:56:18.967Z,78.01
2023-05-17T17:59:21.017Z,78.05
2023-05-17T18:02:22.713Z,78.09
2023-05-17T18:05:25.536Z,78.10
2023-05-17T18:08:27.373Z,78.04
2023-05-17T18:11:29.075Z,78.06
2023-05-17T18:14:30.888Z,78.01
2023-05-17T18:17:32.809Z,77.97
2023-05-17T18:20:34.859Z,77.95
2023-05-17T18:23:37.341Z,77.96
2023-05-17T18:26:39.474Z,77.85
2023-05-17T18:29:41.710Z,77.81
2023-05-17T18:32:43.744Z,77.83
2023-05-17T18:35:45.674Z,77.78
2023-05-17T18:38:47.445Z,77.75
2023-05-17T18:41:49.170Z,77.69
2023-05-17T18:44:50.950Z,77.65
2023-05-17T18:47:52.758Z,77.66
2023-05-17T18:50:56.736Z,77.64
2023-05-17T18:53:58.449Z,77.55
2023-05-17T18:57:00.182Z,77.52
2023-05-17T19:00:02.057Z,77.55
2023-05-17T19:03:03.968Z,77.46
2023-05-17T19:06:05.787Z,77.49
2023-05-17T19:09:07.929Z,77.50
2023-05-17T19:12:09.784Z,77.44
2023-05-17T19:15:11.681Z,77.42
2023-05-17T19:18:13.496Z,77.42
2023-05-17T19:21:15.459Z,77.45
2023-05-17T19:24:17.260Z,77.46
2023-05-17T19:27:19.125Z,77.47
2023-05-17T19:30:20.882Z,77.56
2023-05-17T19:33:23.231Z,77.49
2023-05-17T19:36:25.359Z,77.44
2023-05-17T19:39:27.141Z,77.44
2023-05-17T19:42:28.930Z,77.46
2023-05-17T19:45:30.655Z,77.44
2023-05-17T19:48:32.400Z,77.42
2023-05-17T19:51:34.422Z,77.37
2023-05-17T19:54:36.221Z,77.32
2023-05-17T19:57:38.053Z,77.29
2023-05-17T20:00:39.756Z,77.34
2023-05-17T20:03:41.710Z,77.32
2023-05-17T20:06:43.793Z,77.32
2023-05-17T20:09:45.691Z,77.31
2023-05-17T20:12:47.567Z,77.34
2023-05-17T20:15:49.344Z,77.41
2023-05-17T20:18:51.117Z,77.35
2023-05-17T20:21:53.027Z,77.28
2023-05-17T20:24:57.105Z,77.31
2023-05-17T20:27:59.636Z,77.31
2023-05-17T20:31:01.891Z,77.34
2023-05-17T20:34:04.341Z,77.34
2023-05-17T20:37:06.101Z,77.34
2023-05-17T20:40:09.231Z,77.32
2023-05-17T20:43:11.042Z,77.34
2023-05-17T20:46:13.411Z,77.38
2023-05-17T20:49:16.309Z,77.42
2023-05-17T20:52:24.734Z,77.44
2023-05-17T20:55:39.646Z,77.49
2023-05-17T20:58:41.396Z,77.47
2023-05-17T21:01:43.548Z,77.48
2023-05-17T21:04:45.442Z,77.42
2023-05-17T21:07:49.880Z,77.45
2023-05-17T21:10:52.478Z,77.46
2023-05-17T21:13:54.492Z,77.46
2023-05-17T21:16:56.376Z,77.40
2023-05-17T21:19:58.153Z,77.43
2023-05-17T21:22:59.859Z,77.44
2023-05-17T21:26:01.759Z,77.44
2023-05-17T21:29:03.514Z,77.43
2023-05-17T21:32:05.512Z,77.43
2023-05-17T21:35:07.692Z,77.44
2023-05-17T21:38:09.393Z,77.43
2023-05-17T21:41:11.138Z,77.42
2023-05-17T21:44:12.918Z,77.45
2023-05-17T21:47:14.893Z,77.41
2023-05-17T21:50:16.943Z,77.45
2023-05-17T21:53:18.652Z,77.41
2023-05-17T21:56:21.121Z,77.35
2023-05-17T21:59:24.315Z,77.33
2023-05-17T22:02:26.250Z,77.33
2023-05-17T22:05:28.220Z,77.29
2023-05-17T22:08:31.460Z,77.30
2023-05-17T22:11:37.913Z,77.29
2023-05-17T22:14:42.706Z,77.31
2023-05-17T22:17:51.797Z,77.33
2023-05-17T22:20:54.617Z,77.30
2023-05-17T22:23:56.444Z,77.33
2023-05-17T22:26:58.215Z,77.30
2023-05-17T22:30:00.293Z,77.28
2023-05-17T22:33:02.422Z,77.28
2023-05-17T22:36:04.238Z,77.30
2023-05-17T22:39:05.892Z,77.30
2023-05-17T22:42:08.679Z,77.21
2023-05-17T22:45:14.193Z,77.25
2023-05-17T22:48:16.026Z,77.30
2023-05-17T22:51:18.044Z,77.32
2023-05-17T22:54:20.453Z,77.32
2023-05-17T22:57:22.157Z,77.27
2023-05-17T23:00:24.930Z,77.19
2023-05-17T23:03:26.652Z,77.18
2023-05-17T23:06:31.470Z,77.19
2023-05-17T23:09:33.163Z,77.19
2023-05-17T23:12:36.383Z,77.17
2023-05-17T23:15:38.718Z,77.17
2023-05-17T23:18:40.701Z,77.15
2023-05-17T23:21:42.988Z,77.14
2023-05-17T23:24:45.877Z,77.11
2023-05-17T23:27:48.461Z,77.13
2023-05-17T23:30:52.888Z,76.98
2023-05-17T23:33:54.606Z,76.92
2023-05-17T23:36:56.338Z,76.88
2023-05-17T23:39:58.712Z,76.84
2023-05-17T23:43:00.352Z,76.76
2023-05-17T23:46:02.736Z,76.78
2023-05-17T23:49:05.172Z,76.60
2023-05-17T23:52:10.564Z,76.60
2023-05-17T23:55:12.421Z,76.65
2023-05-17T23:58:14.156Z,76.52
